createdAt,value
2022-08-16T00:01:55.768Z,99340.00
2022-08-16T00:04:23.541Z,99338.66
2022-08-16T00:06:55.822Z,99338.66
2022-08-16T00:09:23.788Z,99339.19
2022-08-16T00:11:52.685Z,99335.94
2022-08-16T00:14:29.214Z,99338.13
2022-08-16T00:17:15.991Z,99342.50
2022-08-16T00:19:46.199Z,99335.94
2022-08-16T00:22:15.604Z,99335.97
2022-08-16T00:24:44.715Z,99343.31
2022-08-16T00:27:15.413Z,99342.19
2022-08-16T00:29:45.922Z,99345.72
2022-08-16T00:32:18.184Z,99347.66
2022-08-16T00:34:52.716Z,99343.09
2022-08-16T00:37:24.531Z,99350.97
2022-08-16T00:39:57.631Z,99349.38
2022-08-16T00:42:30.173Z,99346.06
2022-08-16T00:45:08.040Z,99357.25
2022-08-16T00:47:42.614Z,99353.44
2022-08-16T00:50:20.689Z,99352.06
2022-08-16T00:52:51.301Z,99352.06
2022-08-16T00:55:22.168Z,99359.44
2022-08-16T00:57:58.512Z,99360.53
2022-08-16T01:00:31.284Z,99353.72
2022-08-16T01:03:03.454Z,99356.47
2022-08-16T01:05:32.834Z,99355.13
2022-08-16T01:08:02.937Z,99359.47
2022-08-16T01:10:53.012Z,99363.28
2022-08-16T01:13:26.820Z,99354.00
2022-08-16T01:16:01.001Z,99354.31
2022-08-16T01:18:40.013Z,99341.75
2022-08-16T01:21:22.185Z,99366.78
2022-08-16T01:24:53.678Z,99356.47
2022-08-16T01:27:03.876Z,99357.03
2022-08-16T01:29:56.935Z,99350.22
2022-08-16T01:32:33.624Z,99352.66
2022-08-16T01:35:05.607Z,99347.22
2022-08-16T01:37:42.369Z,99345.31
2022-08-16T01:40:13.230Z,99342.34
2022-08-16T01:42:44.042Z,99350.50
2022-08-16T01:45:15.941Z,99349.94
2022-08-16T01:47:50.943Z,99346.69
2022-08-16T01:50:42.455Z,99341.25
2022-08-16T01:53:10.144Z,99343.16
2022-08-16T01:55:41.457Z,99342.34
2022-08-16T01:58:12.220Z,99353.75
2022-08-16T02:00:40.144Z,99363.56
2022-08-16T02:03:08.101Z,99357.03
2022-08-16T02:05:42.115Z,99359.19
2022-08-16T02:08:33.857Z,99361.06
2022-08-16T02:11:06.513Z,99358.06
2022-08-16T02:13:35.319Z,99359.44
2022-08-16T02:16:03.529Z,99355.66
2022-08-16T02:18:31.355Z,99354.28
2022-08-16T02:21:01.711Z,99356.72
2022-08-16T02:23:32.845Z,99350.19
2022-08-16T02:26:01.251Z,99351.00
2022-08-16T02:28:31.568Z,99349.63
2022-08-16T02:31:03.252Z,99350.97
2022-08-16T02:33:43.649Z,99352.56
2022-08-16T02:36:42.250Z,99356.38
2022-08-16T02:39:02.888Z,99355.59
2022-08-16T02:41:31.013Z,99356.69
2022-08-16T02:44:00.188Z,99357.22
2022-08-16T02:46:30.142Z,99351.78
2022-08-16T02:49:02.167Z,99351.53
2022-08-16T02:51:29.922Z,99355.56
2022-08-16T02:53:59.629Z,99351.22
2022-08-16T02:56:32.360Z,99351.50
2022-08-16T02:59:01.595Z,99353.41
2022-08-16T03:01:33.672Z,99354.22
2022-08-16T03:04:40.040Z,99341.69
2022-08-16T03:06:56.337Z,99349.84
2022-08-16T03:09:25.508Z,99343.88
2022-08-16T03:11:57.029Z,99345.53
2022-08-16T03:14:26.565Z,99343.91
2022-08-16T03:16:59.343Z,99354.50
2022-08-16T03:19:46.848Z,99351.22
2022-08-16T03:22:19.471Z,99360.72
2022-08-16T03:24:57.940Z,99357.72
2022-08-16T03:27:30.743Z,99353.63
2022-08-16T03:30:01.287Z,99360.94
2022-08-16T03:32:29.715Z,99357.47
2022-08-16T03:34:57.372Z,99355.53
2022-08-16T03:37:25.238Z,99360.94
2022-08-16T03:39:56.462Z,99354.69
2022-08-16T03:42:29.568Z,99359.03
2022-08-16T03:45:03.623Z,99357.94
2022-08-16T03:47:34.844Z,99364.41
2022-08-16T03:50:03.695Z,99360.66
2022-08-16T03:52:51.372Z,99366.34
2022-08-16T03:55:28.946Z,99358.22
2022-08-16T03:58:10.747Z,99348.97
2022-08-16T04:00:41.350Z,99362.00
2022-08-16T04:03:10.668Z,99358.44
2022-08-16T04:05:40.921Z,99370.88
2022-08-16T04:08:23.131Z,99355.91
2022-08-16T04:10:55.007Z,99353.75
2022-08-16T04:14:00.996Z,99359.69
2022-08-16T04:16:26.098Z,99359.50
2022-08-16T04:19:01.388Z,99365.22
2022-08-16T04:21:30.983Z,99367.34
2022-08-16T04:24:00.158Z,99365.22
2022-08-16T04:26:30.846Z,99366.63
2022-08-16T04:29:16.728Z,99381.84
2022-08-16T04:31:56.714Z,99374.50
2022-08-16T04:34:29.393Z,99369.06
2022-08-16T04:36:58.890Z,99368.84
2022-08-16T04:39:36.615Z,99371.81
2022-08-16T04:42:13.450Z,99369.09
2022-08-16T04:44:53.959Z,99370.19
2022-08-16T04:47:25.148Z,99373.78
2022-08-16T04:50:00.875Z,99378.16
2022-08-16T04:52:33.960Z,99377.13
2022-08-16T04:55:06.032Z,99372.50
2022-08-16T04:57:33.991Z,99383.16
2022-08-16T05:00:30.869Z,99376.06
2022-08-16T05:02:54.913Z,99371.59
2022-08-16T05:05:25.455Z,99378.03
2022-08-16T05:08:00.707Z,99377.94
2022-08-16T05:10:48.371Z,99378.47
2022-08-16T05:13:18.188Z,99383.69
2022-08-16T05:15:47.041Z,99390.06
2022-08-16T05:18:21.974Z,99393.69
2022-08-16T05:21:01.718Z,99384.06
2022-08-16T05:23:37.524Z,99392.75
2022-08-16T05:26:06.147Z,99391.28
2022-08-16T05:28:47.470Z,99386.47
2022-08-16T05:31:23.711Z,99380.16
2022-08-16T05:33:57.204Z,99385.19
2022-08-16T05:36:34.325Z,99384.91
2022-08-16T05:39:08.785Z,99390.88
2022-08-16T05:41:45.339Z,99387.06
2022-08-16T05:44:24.214Z,99394.13
2022-08-16T05:46:54.929Z,99397.22
2022-08-16T05:49:23.378Z,99408.59
2022-08-16T05:51:52.933Z,99406.28
2022-08-16T05:54:25.199Z,99416.44
2022-08-16T05:56:55.719Z,99415.41
2022-08-16T05:59:27.004Z,99413.00
2022-08-16T06:01:56.124Z,99405.25
2022-08-16T06:04:34.941Z,99408.00
2022-08-16T06:07:08.991Z,99397.38
2022-08-16T06:09:52.545Z,99400.03
2022-08-16T06:12:26.744Z,99405.88
2022-08-16T06:14:59.159Z,99399.78
2022-08-16T06:17:28.132Z,99403.47
2022-08-16T06:20:14.655Z,99398.59
2022-08-16T06:23:02.767Z,99405.75
2022-08-16T06:25:36.771Z,99393.31
2022-08-16T06:28:09.412Z,99386.25
2022-08-16T06:30:43.245Z,99389.13
2022-08-16T06:33:12.772Z,99391.34
2022-08-16T06:35:41.680Z,99389.13
2022-08-16T06:38:32.153Z,99392.78
2022-08-16T06:40:58.918Z,99397.91
2022-08-16T06:43:27.289Z,99389.06
2022-08-16T06:45:55.927Z,99405.72
2022-08-16T06:48:32.616Z,99403.47
2022-08-16T06:51:06.273Z,99396.56
2022-08-16T06:53:36.638Z,99387.31
2022-08-16T06:56:14.416Z,99387.28
2022-08-16T06:58:47.558Z,99394.00
2022-08-16T07:01:15.726Z,99399.63
2022-08-16T07:03:55.756Z,99401.44
2022-08-16T07:06:26.812Z,99406.38
2022-08-16T07:09:10.102Z,99415.34
2022-08-16T07:11:47.193Z,99409.66
2022-08-16T07:14:24.543Z,99411.13
2022-08-16T07:16:55.286Z,99413.41
2022-08-16T07:19:22.947Z,99420.59
2022-08-16T07:22:37.156Z,99414.78
2022-08-16T07:24:59.719Z,99411.84
2022-08-16T07:27:28.394Z,99421.88
2022-08-16T07:29:59.784Z,99412.53
2022-08-16T07:32:29.534Z,99417.25
2022-08-16T07:34:59.751Z,99414.94
2022-08-16T07:37:27.503Z,99416.13
2022-08-16T07:39:57.243Z,99408.97
2022-08-16T07:42:34.814Z,99403.19
2022-08-16T07:45:03.322Z,99417.31
2022-08-16T07:47:35.647Z,99414.63
2022-08-16T07:50:07.849Z,99416.00
2022-08-16T07:52:39.692Z,99417.44
2022-08-16T07:55:09.179Z,99421.75
2022-08-16T07:57:58.149Z,99419.22
2022-08-16T08:00:26.746Z,99428.59
2022-08-16T08:02:55.492Z,99432.38
2022-08-16T08:05:35.740Z,99424.53
2022-08-16T08:08:11.783Z,99429.94
2022-08-16T08:10:53.257Z,99428.56
2022-08-16T08:13:41.809Z,99431.38
2022-08-16T08:16:16.914Z,99433.34
2022-08-16T08:18:49.827Z,99441.50
2022-08-16T08:21:27.535Z,99439.53
2022-08-16T08:24:09.280Z,99435.94
2022-08-16T08:26:37.794Z,99441.91
2022-08-16T08:29:12.124Z,99435.53
2022-08-16T08:31:42.348Z,99436.59
2022-08-16T08:34:12.624Z,99438.41
2022-08-16T08:36:40.771Z,99437.72
2022-08-16T08:39:12.620Z,99439.75
2022-08-16T08:41:41.586Z,99435.59
2022-08-16T08:44:28.468Z,99434.38
2022-08-16T08:47:00.036Z,99436.63
2022-08-16T08:49:46.814Z,99432.28
2022-08-16T08:52:34.827Z,99439.91
2022-08-16T08:55:10.478Z,99440.53
2022-08-16T08:57:38.619Z,99431.91
2022-08-16T09:00:13.482Z,99440.72
2022-08-16T09:02:44.498Z,99439.09
2022-08-16T09:05:15.576Z,99439.72
2022-08-16T09:08:00.678Z,99447.28
2022-08-16T09:10:30.538Z,99453.47
2022-08-16T09:12:58.655Z,99452.88
2022-08-16T09:15:33.029Z,99454.66
2022-08-16T09:18:25.322Z,99453.16
2022-08-16T09:20:58.627Z,99456.91
2022-08-16T09:23:29.413Z,99454.34
2022-08-16T09:25:57.242Z,99460.03
2022-08-16T09:29:13.541Z,99455.88
2022-08-16T09:31:18.065Z,99459.47
2022-08-16T09:33:52.124Z,99455.44
2022-08-16T09:36:31.807Z,99454.22
2022-08-16T09:39:02.119Z,99460.66
2022-08-16T09:41:31.797Z,99458.19
2022-08-16T09:44:02.653Z,99463.91
2022-08-16T09:46:50.006Z,99461.44
2022-08-16T09:49:19.875Z,99463.22
2022-08-16T09:51:54.830Z,99454.81
2022-08-16T09:54:25.006Z,99451.38
2022-08-16T09:57:00.542Z,99454.75
2022-08-16T09:59:45.935Z,99457.88
2022-08-16T10:02:26.791Z,99463.09
2022-08-16T10:04:57.349Z,99452.03
2022-08-16T10:07:26.189Z,99457.66
2022-08-16T10:10:12.014Z,99462.00
2022-08-16T10:12:58.685Z,99463.75
2022-08-16T10:15:30.262Z,99453.16
2022-08-16T10:18:02.479Z,99448.91
2022-08-16T10:20:49.792Z,99442.00
2022-08-16T10:23:17.870Z,99446.41
2022-08-16T10:27:17.131Z,99445.22
2022-08-16T10:28:39.542Z,99445.88
2022-08-16T10:31:11.712Z,99438.38
2022-08-16T10:33:43.978Z,99450.78
2022-08-16T10:36:39.057Z,99453.44
2022-08-16T10:39:01.209Z,99451.81
2022-08-16T10:41:29.958Z,99443.44
2022-08-16T10:43:58.364Z,99448.88
2022-08-16T10:46:39.842Z,99450.13
2022-08-16T10:49:12.672Z,99449.91
2022-08-16T10:52:01.953Z,99445.41
2022-08-16T10:54:34.160Z,99450.25
2022-08-16T10:57:24.467Z,99441.06
2022-08-16T10:59:57.763Z,99437.00
2022-08-16T11:02:58.725Z,99441.16
2022-08-16T11:05:18.051Z,99441.09
2022-08-16T11:07:52.186Z,99442.13
2022-08-16T11:19:03.980Z,99444.69
2022-08-16T11:21:36.877Z,99456.38
2022-08-16T11:24:39.310Z,99445.31
2022-08-16T11:29:40.911Z,99449.66
2022-08-16T11:32:08.658Z,99445.03
2022-08-16T11:35:05.899Z,99441.47
2022-08-16T11:37:34.178Z,99444.53
2022-08-16T11:40:15.980Z,99449.00
2022-08-16T11:42:47.405Z,99443.94
2022-08-16T11:45:15.423Z,99449.97
2022-08-16T11:47:43.100Z,99447.06
2022-08-16T11:50:12.100Z,99452.97
2022-08-16T11:52:41.192Z,99448.91
2022-08-16T11:55:14.929Z,99444.91
2022-08-16T11:57:42.612Z,99446.38
2022-08-16T12:00:33.819Z,99450.19
2022-08-16T12:03:01.809Z,99446.22
2022-08-16T12:05:31.017Z,99457.31
2022-08-16T12:08:01.326Z,99449.72
2022-08-16T12:10:33.953Z,99450.34
2022-08-16T12:13:02.708Z,99441.66
2022-08-16T12:15:30.998Z,99442.84
2022-08-16T12:17:59.126Z,99440.66
2022-08-16T12:20:29.816Z,99427.69
2022-08-16T12:22:58.119Z,99433.13
2022-08-16T12:25:30.123Z,99439.75
2022-08-16T12:27:58.172Z,99431.50
2022-08-16T12:30:38.585Z,99429.72
2022-08-16T12:33:09.093Z,99422.84
2022-08-16T12:35:39.098Z,99430.81
2022-08-16T12:38:41.479Z,99416.47
2022-08-16T12:40:58.927Z,99426.28
2022-08-16T12:43:27.070Z,99413.78
2022-08-16T12:46:02.142Z,99420.19
2022-08-16T12:48:50.256Z,99416.09
2022-08-16T12:51:24.118Z,99421.34
2022-08-16T12:53:54.492Z,99419.31
2022-08-16T12:56:26.566Z,99427.69
2022-08-16T12:58:56.006Z,99420.69
2022-08-16T13:01:31.193Z,99419.31
2022-08-16T13:04:11.879Z,99413.13
2022-08-16T13:06:50.118Z,99410.91
2022-08-16T13:09:21.786Z,99403.75
2022-08-16T13:12:04.189Z,99396.13
2022-08-16T13:14:37.802Z,99394.44
2022-08-16T13:17:08.181Z,99391.66
2022-08-16T13:20:06.683Z,99394.91
2022-08-16T13:22:25.505Z,99391.81
2022-08-16T13:24:53.898Z,99395.63
2022-08-16T13:28:15.033Z,99396.25
2022-08-16T13:30:36.205Z,99400.19
2022-08-16T13:33:00.547Z,99385.13
2022-08-16T13:35:32.986Z,99381.91
2022-08-16T13:38:02.488Z,99389.91
2022-08-16T13:40:31.311Z,99384.47
2022-08-16T13:43:01.049Z,99377.91
2022-08-16T13:45:36.105Z,99384.16
2022-08-16T13:48:05.389Z,99372.34
2022-08-16T13:50:51.476Z,99378.22
2022-08-16T13:53:24.604Z,99380.84
2022-08-16T13:55:57.737Z,99383.06
2022-08-16T13:58:36.635Z,99380.47
2022-08-16T14:01:09.763Z,99379.41
2022-08-16T14:03:38.849Z,99381.56
2022-08-16T14:06:07.743Z,99373.69
2022-08-16T14:08:42.129Z,99374.50
2022-08-16T14:11:11.864Z,99378.78
2022-08-16T14:13:42.050Z,99371.84
2022-08-16T14:16:23.333Z,99371.50
2022-08-16T14:18:52.745Z,99368.75
2022-08-16T14:21:22.153Z,99366.88
2022-08-16T14:23:52.426Z,99361.78
2022-08-16T14:26:21.273Z,99360.94
2022-08-16T14:28:52.463Z,99364.09
2022-08-16T14:31:23.036Z,99365.38
2022-08-16T14:33:52.667Z,99353.66
2022-08-16T14:36:29.922Z,99352.78
2022-08-16T14:38:58.336Z,99362.47
2022-08-16T14:41:26.097Z,99364.81
2022-08-16T14:43:55.617Z,99366.59
2022-08-16T14:46:23.497Z,99361.56
2022-08-16T14:48:52.200Z,99361.75
2022-08-16T14:51:21.101Z,99344.88
2022-08-16T14:53:52.210Z,99358.19
2022-08-16T14:56:38.173Z,99346.69
2022-08-16T14:59:09.723Z,99339.25
2022-08-16T15:01:57.707Z,99343.94
2022-08-16T15:04:36.891Z,99327.03
2022-08-16T15:07:10.864Z,99331.34
2022-08-16T15:09:44.895Z,99329.34
2022-08-16T15:12:31.066Z,99334.91
2022-08-16T15:15:12.710Z,99330.09
2022-08-16T15:17:54.579Z,99329.22
2022-08-16T15:20:29.309Z,99337.56
2022-08-16T15:22:59.935Z,99332.72
2022-08-16T15:25:31.768Z,99332.09
2022-08-16T15:28:02.401Z,99335.31
2022-08-16T15:30:58.061Z,99336.09
2022-08-16T15:33:25.794Z,99332.78
2022-08-16T15:35:57.905Z,99337.97
2022-08-16T15:38:55.267Z,99335.88
2022-08-16T15:41:34.009Z,99334.00
2022-08-16T15:44:05.131Z,99332.97
2022-08-16T15:46:55.398Z,99339.03
2022-08-16T15:49:37.761Z,99330.94
2022-08-16T15:52:20.536Z,99338.31
2022-08-16T15:54:53.205Z,99338.31
2022-08-16T15:57:23.961Z,99334.66
2022-08-16T15:59:52.985Z,99336.44
2022-08-16T16:02:30.763Z,99344.19
2022-08-16T16:05:01.853Z,99341.50
2022-08-16T16:07:31.988Z,99338.72
2022-08-16T16:10:01.342Z,99347.25
2022-08-16T16:12:50.990Z,99339.06
2022-08-16T16:15:20.148Z,99348.22
2022-08-16T16:17:52.802Z,99353.41
2022-08-16T16:20:22.070Z,99349.94
2022-08-16T16:22:56.772Z,99348.16
2022-08-16T16:25:26.078Z,99344.28
2022-08-16T16:27:55.726Z,99345.97
2022-08-16T16:30:37.838Z,99347.00
2022-08-16T16:33:21.310Z,99333.81
2022-08-16T16:35:56.691Z,99337.34
2022-08-16T16:38:28.805Z,99337.34
2022-08-16T16:40:57.709Z,99335.34
2022-08-16T16:43:31.558Z,99338.72
2022-08-16T16:46:01.706Z,99337.22
2022-08-16T16:48:34.905Z,99331.44
2022-08-16T16:51:09.574Z,99338.59
2022-08-16T16:53:40.984Z,99334.69
2022-08-16T16:56:19.615Z,99337.09
2022-08-16T16:59:00.982Z,99336.59
2022-08-16T17:02:00.060Z,99340.00
2022-08-16T17:04:31.817Z,99338.91
2022-08-16T17:07:01.576Z,99343.81
2022-08-16T17:09:30.678Z,99338.00
2022-08-16T17:11:59.278Z,99340.31
2022-08-16T17:14:33.196Z,99330.44
2022-08-16T17:17:01.725Z,99334.06
2022-08-16T17:19:32.096Z,99333.28
2022-08-16T17:22:00.037Z,99332.63
2022-08-16T17:24:31.951Z,99336.03
2022-08-16T17:27:08.471Z,99334.13
2022-08-16T17:29:42.901Z,99335.94
2022-08-16T17:32:33.694Z,99338.25
2022-08-16T17:35:10.290Z,99339.38
2022-08-16T17:37:49.729Z,99339.41
2022-08-16T17:40:25.665Z,99339.09
2022-08-16T17:43:09.460Z,99335.72
2022-08-16T17:45:38.208Z,99337.19
2022-08-16T17:48:06.429Z,99331.97
2022-08-16T17:50:35.848Z,99332.94
2022-08-16T17:53:04.054Z,99339.44
2022-08-16T17:55:34.424Z,99335.22
2022-08-16T17:58:09.738Z,99335.53
2022-08-16T18:00:52.029Z,99345.75
2022-08-16T18:04:02.923Z,99346.56
2022-08-16T18:06:17.646Z,99349.97
2022-08-16T18:08:48.350Z,99349.13
2022-08-16T18:11:18.848Z,99344.72
2022-08-16T18:13:47.692Z,99350.72
2022-08-16T18:16:16.681Z,99353.13
2022-08-16T18:18:46.853Z,99360.06
2022-08-16T18:21:34.099Z,99348.38
2022-08-16T18:24:02.093Z,99358.09
2022-08-16T18:26:30.159Z,99355.16
2022-08-16T18:28:57.913Z,99350.25
2022-08-16T18:31:25.958Z,99358.75
2022-08-16T18:33:55.740Z,99356.44
2022-08-16T18:36:26.323Z,99365.50
2022-08-16T18:38:55.343Z,99368.84
2022-08-16T18:41:25.316Z,99360.00
2022-08-16T18:44:23.119Z,99371.78
2022-08-16T18:46:43.946Z,99363.31
2022-08-16T18:49:14.103Z,99363.00
2022-08-16T18:51:47.252Z,99367.34
2022-08-16T18:54:17.849Z,99367.75
2022-08-16T18:56:56.207Z,99361.28
2022-08-16T18:59:27.062Z,99373.47
2022-08-16T19:01:59.781Z,99373.09
2022-08-16T19:04:55.273Z,99375.97
2022-08-16T19:07:21.475Z,99374.66
2022-08-16T19:09:49.251Z,99384.81
2022-08-16T19:12:17.076Z,99382.69
2022-08-16T19:15:07.762Z,99386.69
2022-08-16T19:17:39.552Z,99389.34
2022-08-16T19:20:10.869Z,99401.75
2022-08-16T19:25:46.274Z,99403.66
2022-08-16T19:28:49.496Z,99411.16
2022-08-16T19:31:09.507Z,99412.41
2022-08-16T19:33:37.256Z,99414.59
2022-08-16T19:36:05.701Z,99412.16
2022-08-16T19:38:35.311Z,99424.28
2022-08-16T19:41:03.184Z,99424.56
2022-08-16T19:43:31.428Z,99432.00
2022-08-16T19:45:59.140Z,99421.41
2022-08-16T19:48:26.877Z,99418.28
2022-08-16T19:50:54.642Z,99430.97
2022-08-16T19:53:22.338Z,99431.88
2022-08-16T19:55:51.329Z,99436.56
2022-08-16T19:58:19.855Z,99435.13
2022-08-16T20:00:52.241Z,99438.88
2022-08-16T20:03:24.718Z,99442.56
2022-08-16T20:05:53.187Z,99448.16
2022-08-16T20:08:22.177Z,99447.41
2022-08-16T20:10:51.536Z,99444.78
2022-08-16T20:13:21.206Z,99451.47
2022-08-16T20:15:50.316Z,99453.81
2022-08-16T20:18:25.080Z,99456.38
2022-08-16T20:20:55.688Z,99453.31
2022-08-16T20:23:25.504Z,99454.53
2022-08-16T20:25:56.443Z,99456.38
2022-08-16T20:28:39.743Z,99451.16
2022-08-16T20:31:12.730Z,99449.34
2022-08-16T20:33:40.561Z,99456.44
2022-08-16T20:36:08.982Z,99453.09
2022-08-16T20:38:45.908Z,99447.09
2022-08-16T20:41:15.506Z,99458.38
2022-08-16T20:43:43.417Z,99465.53
2022-08-16T20:46:11.216Z,99464.81
2022-08-16T20:48:38.860Z,99463.25
2022-08-16T20:51:10.427Z,99459.56
2022-08-16T20:53:38.513Z,99469.72
2022-08-16T20:56:06.956Z,99468.19
2022-08-16T20:58:36.044Z,99468.50
2022-08-16T21:01:05.193Z,99476.63
2022-08-16T21:03:33.173Z,99478.84
2022-08-16T21:06:02.441Z,99474.28
2022-08-16T21:08:51.915Z,99479.00
2022-08-16T21:11:18.435Z,99476.06
2022-08-16T21:13:47.532Z,99477.69
2022-08-16T21:16:16.896Z,99476.94
2022-08-16T21:18:44.706Z,99480.94
2022-08-16T21:21:12.649Z,99485.66
2022-08-16T21:23:40.668Z,99486.13
2022-08-16T21:26:11.148Z,99492.19
2022-08-16T21:28:43.245Z,99492.41
2022-08-16T21:31:15.066Z,99488.13
2022-08-16T21:33:43.547Z,99491.09
2022-08-16T21:36:12.035Z,99485.97
2022-08-16T21:38:40.525Z,99486.22
2022-08-16T21:41:12.714Z,99492.13
2022-08-16T21:43:40.611Z,99489.47
2022-08-16T21:46:09.020Z,99497.16
2022-08-16T21:48:40.493Z,99492.44
2022-08-16T21:51:12.539Z,99492.00
2022-08-16T21:53:41.497Z,99486.31
2022-08-16T21:56:14.974Z,99484.81
2022-08-16T21:58:45.151Z,99489.03
2022-08-16T22:01:12.991Z,99490.78
2022-08-16T22:03:42.464Z,99489.81
2022-08-16T22:06:14.132Z,99502.91
2022-08-16T22:08:48.916Z,99497.53
2022-08-16T22:11:19.269Z,99500.47
2022-08-16T22:13:58.340Z,99502.44
2022-08-16T22:16:29.019Z,99508.03
2022-08-16T22:18:58.037Z,99503.47
2022-08-16T22:21:26.090Z,99505.91
2022-08-16T22:23:56.498Z,99509.41
2022-08-16T22:26:30.229Z,99507.03
2022-08-16T22:28:59.699Z,99508.13
2022-08-16T22:31:27.556Z,99499.97
2022-08-16T22:33:56.553Z,99511.84
2022-08-16T22:36:28.425Z,99504.00
2022-08-16T22:38:58.865Z,99509.28
2022-08-16T22:41:27.363Z,99511.44
2022-08-16T22:43:54.984Z,99518.38
2022-08-16T22:46:22.583Z,99520.59
2022-08-16T22:48:51.023Z,99529.47
2022-08-16T22:51:19.359Z,99528.22
2022-08-16T22:53:48.899Z,99527.38
2022-08-16T22:56:17.479Z,99520.88
2022-08-16T22:58:45.321Z,99524.13
2022-08-16T23:01:14.511Z,99517.84
2022-08-16T23:03:43.130Z,99525.75
2022-08-16T23:06:12.273Z,99518.97
2022-08-16T23:08:42.144Z,99530.66
2022-08-16T23:11:13.172Z,99524.06
2022-08-16T23:13:52.819Z,99527.56
2022-08-16T23:16:24.854Z,99527.38
2022-08-16T23:18:58.567Z,99517.03
2022-08-16T23:21:27.452Z,99512.44
2022-08-16T23:23:55.036Z,99517.09
2022-08-16T23:26:44.976Z,99510.25
2022-08-16T23:29:15.643Z,99529.41
2022-08-16T23:31:53.273Z,99517.22
2022-08-16T23:34:21.513Z,99518.09
2022-08-16T23:36:49.158Z,99520.59
2022-08-16T23:39:16.883Z,99521.97
2022-08-16T23:41:45.820Z,99504.78
2022-08-16T23:44:56.047Z,99511.34
2022-08-16T23:47:01.117Z,99506.22
2022-08-16T23:49:59.358Z,99492.03
2022-08-16T23:52:16.522Z,99497.81
2022-08-16T23:54:44.179Z,99497.25
2022-08-16T23:57:13.119Z,99498.34
2022-08-16T23:59:48.622Z,99494.56
